Time;durP1;ratioP1;P1;durP2;ratioP2;P2;SDS_P1;SDS_P2;PMS_P1;PMS_P2;Temp;Humidity;BMP_temperature;BMP_pressure;BME280_temperature;BME280_humidity;BME280_pressure;Samples;Min_cycle;Max_cycle;Signal;HPM_P1;HPM_P2
2023/09/19 00:01:52;;;;;;;10.73;3.90;;;;;;;;;;4959652;29;20047;-89
2023/09/19 00:04:23;;;;;;;7.63;3.85;;;;;;;;;;4959172;28;20058;-88
2023/09/19 00:06:50;;;;;;;11.02;3.90;;;;;;;;;;4959649;29;20118;-88
2023/09/19 00:09:16;;;;;;;6.15;3.47;;;;;;;;;;4959222;29;20051;-89
2023/09/19 00:11:42;;;;;;;8.52;3.60;;;;;;;;;;4956099;29;20070;-90
2023/09/19 00:14:08;;;;;;;11.20;4.35;;;;;;;;;;4960563;29;20024;-89
2023/09/19 00:16:36;;;;;;;8.75;3.60;;;;;;;;;;4959247;29;20039;-89
2023/09/19 00:19:08;;;;;;;5.25;3.30;;;;;;;;;;4959345;29;20468;-86
2023/09/19 00:21:34;;;;;;;7.43;3.40;;;;;;;;;;4959015;29;20027;-88
2023/09/19 00:27:22;;;;;;;9.43;3.35;;;;;;;;;;4960697;29;20041;-90
2023/09/19 00:29:48;;;;;;;9.02;3.65;;;;;;;;;;4959237;29;20027;-89
2023/09/19 00:32:14;;;;;;;17.65;3.90;;;;;;;;;;4959639;28;20062;-90
2023/09/19 00:34:42;;;;;;;11.05;3.92;;;;;;;;;;4958718;29;20333;-90
2023/09/19 00:37:08;;;;;;;18.33;4.07;;;;;;;;;;4960174;29;20023;-90
2023/09/19 00:42:38;;;;;;;8.77;3.58;;;;;;;;;;4959919;29;20042;-90
2023/09/19 00:45:05;;;;;;;7.95;3.33;;;;;;;;;;4960213;29;20049;-89
2023/09/19 00:47:31;;;;;;;7.35;3.35;;;;;;;;;;4959706;29;20299;-89
2023/09/19 00:49:57;;;;;;;9.45;3.35;;;;;;;;;;4959823;29;20413;-87
2023/09/19 00:52:24;;;;;;;10.13;3.25;;;;;;;;;;4958865;29;20059;-89
2023/09/19 00:57:55;;;;;;;5.40;3.47;;;;;;;;;;4959856;29;20074;-88
2023/09/19 01:00:23;;;;;;;10.98;3.85;;;;;;;;;;4958726;29;20114;-89
2023/09/19 01:02:49;;;;;;;10.55;3.60;;;;;;;;;;4959283;28;20027;-88
2023/09/19 01:05:15;;;;;;;6.13;3.67;;;;;;;;;;4959618;29;20027;-89
2023/09/19 01:10:27;;;;;;;9.10;3.65;;;;;;;;;;4959846;29;20042;-89
2023/09/19 01:13:02;;;;;;;10.52;4.03;;;;;;;;;;4959664;29;20027;-89
2023/09/19 01:15:54;;;;;;;7.97;3.67;;;;;;;;;;4959495;29;20035;-89
2023/09/19 01:18:34;;;;;;;5.85;3.38;;;;;;;;;;4958693;28;20032;-89
2023/09/19 01:21:19;;;;;;;8.55;3.67;;;;;;;;;;4958320;29;20039;-91
2023/09/19 01:23:45;;;;;;;7.82;3.47;;;;;;;;;;4959648;29;20377;-89
2023/09/19 01:26:14;;;;;;;7.07;3.95;;;;;;;;;;4958661;29;20070;-90
2023/09/19 01:28:47;;;;;;;9.10;3.95;;;;;;;;;;4959784;29;20287;-90
2023/09/19 01:31:14;;;;;;;9.07;4.00;;;;;;;;;;4959594;28;20330;-90
2023/09/19 01:33:59;;;;;;;5.20;3.22;;;;;;;;;;4959505;29;20417;-92
2023/09/19 01:36:36;;;;;;;8.43;3.78;;;;;;;;;;4959592;29;20432;-92
2023/09/19 01:42:19;;;;;;;8.90;3.85;;;;;;;;;;4959338;29;20129;-91
2023/09/19 01:44:48;;;;;;;10.60;3.78;;;;;;;;;;4959575;28;20039;-91
2023/09/19 01:47:27;;;;;;;4.63;3.50;;;;;;;;;;4962270;29;20114;-92
2023/09/19 01:50:00;;;;;;;8.68;3.80;;;;;;;;;;4962113;29;20076;-91
2023/09/19 01:52:29;;;;;;;7.05;4.25;;;;;;;;;;4963158;29;20031;-92
2023/09/19 01:58:04;;;;;;;6.93;4.57;;;;;;;;;;4963341;29;20054;-91
2023/09/19 02:00:31;;;;;;;10.27;4.22;;;;;;;;;;4962986;29;20310;-89
2023/09/19 02:02:58;;;;;;;13.68;4.85;;;;;;;;;;4961493;29;20027;-90
2023/09/19 02:05:25;;;;;;;8.77;5.00;;;;;;;;;;4962613;29;20047;-90
2023/09/19 02:07:53;;;;;;;8.80;5.60;;;;;;;;;;4962741;29;20464;-89
2023/09/19 02:16:38;;;;;;;8.50;5.90;;;;;;;;;;4962939;29;20060;-90
2023/09/19 02:19:05;;;;;;;10.30;5.80;;;;;;;;;;4962583;29;20099;-89
2023/09/19 02:21:32;;;;;;;11.10;5.78;;;;;;;;;;4961384;29;20051;-89
2023/09/19 02:27:04;;;;;;;7.95;5.45;;;;;;;;;;4962786;29;20034;-89
2023/09/19 02:29:30;;;;;;;10.63;5.15;;;;;;;;;;4962608;29;20039;-90
2023/09/19 02:31:56;;;;;;;9.80;5.75;;;;;;;;;;4961258;29;20031;-90
2023/09/19 02:34:23;;;;;;;7.55;5.03;;;;;;;;;;4961203;29;20031;-90
2023/09/19 02:36:49;;;;;;;16.17;5.68;;;;;;;;;;4961390;29;20031;-90
2023/09/19 02:39:34;;;;;;;12.13;5.55;;;;;;;;;;4961383;29;20032;-89
2023/09/19 02:42:01;;;;;;;7.75;4.82;;;;;;;;;;4960843;29;20039;-91
2023/09/19 02:44:27;;;;;;;9.32;5.70;;;;;;;;;;4962432;29;20023;-91
2023/09/19 02:46:53;;;;;;;10.10;5.30;;;;;;;;;;4961231;29;20023;-93
2023/09/19 02:49:27;;;;;;;10.15;6.07;;;;;;;;;;4961159;29;20023;-95
2023/09/19 02:52:00;;;;;;;9.88;5.97;;;;;;;;;;4960312;29;20448;-94
2023/09/19 02:54:45;;;;;;;12.52;5.50;;;;;;;;;;4941073;29;20122;-94
2023/09/19 03:01:14;;;;;;;;;;;;;;;;;;;;;
2023/09/19 03:15:58;;;;;;;9.43;6.85;;;;;;;;;;5323292;23;20086;-92
2023/09/19 03:18:26;;;;;;;12.02;7.00;;;;;;;;;;4963710;28;20042;-89
2023/09/19 03:20:56;;;;;;;7.65;5.72;;;;;;;;;;4980878;28;20050;-89
2023/09/19 03:23:22;;;;;;;12.75;6.68;;;;;;;;;;4963705;28;20030;-89
2023/09/19 03:25:48;;;;;;;9.98;5.90;;;;;;;;;;4963660;28;20077;-89
2023/09/19 03:28:15;;;;;;;11.48;6.00;;;;;;;;;;4963876;28;20034;-89
2023/09/19 03:30:42;;;;;;;10.60;6.10;;;;;;;;;;4963743;28;20382;-90
2023/09/19 03:33:08;;;;;;;9.90;5.57;;;;;;;;;;4980452;28;20027;-89
2023/09/19 03:35:34;;;;;;;12.02;6.07;;;;;;;;;;4980725;28;20054;-89
2023/09/19 03:38:00;;;;;;;9.20;5.80;;;;;;;;;;4963529;28;20077;-89
2023/09/19 03:40:26;;;;;;;7.47;5.60;;;;;;;;;;4963431;28;20030;-91
2023/09/19 03:42:52;;;;;;;7.68;5.85;;;;;;;;;;4963382;28;20023;-91
2023/09/19 03:45:18;;;;;;;8.20;5.50;;;;;;;;;;4980414;28;20027;-93
2023/09/19 03:47:47;;;;;;;9.85;5.10;;;;;;;;;;4980313;28;20022;-91
2023/09/19 03:50:17;;;;;;;8.57;5.65;;;;;;;;;;4962435;28;20031;-91
2023/09/19 03:52:44;;;;;;;23.20;6.53;;;;;;;;;;4962465;28;20082;-88
2023/09/19 03:55:10;;;;;;;10.63;6.00;;;;;;;;;;4979999;28;20023;-89
2023/09/19 03:57:36;;;;;;;8.93;5.60;;;;;;;;;;4980485;28;20054;-91
2023/09/19 04:00:05;;;;;;;11.02;5.30;;;;;;;;;;4963025;28;20420;-91
2023/09/19 04:02:33;;;;;;;16.00;6.60;;;;;;;;;;4962952;28;20114;-91
2023/09/19 04:04:59;;;;;;;7.80;6.38;;;;;;;;;;4979965;28;20053;-92
2023/09/19 04:07:28;;;;;;;12.05;6.28;;;;;;;;;;4979800;28;20022;-93
2023/09/19 04:09:54;;;;;;;10.20;6.10;;;;;;;;;;4962543;28;20027;-92
2023/09/19 04:12:21;;;;;;;7.93;5.88;;;;;;;;;;4962024;28;20376;-92
2023/09/19 04:14:47;;;;;;;8.07;5.68;;;;;;;;;;4979526;28;20059;-91
2023/09/19 04:17:13;;;;;;;7.22;5.63;;;;;;;;;;4962988;28;20030;-93
2023/09/19 04:19:40;;;;;;;12.82;6.05;;;;;;;;;;4962627;28;20436;-91
2023/09/19 04:22:07;;;;;;;7.30;5.40;;;;;;;;;;4962487;28;20033;-92
2023/09/19 04:24:33;;;;;;;9.05;5.25;;;;;;;;;;4979539;28;20037;-91
2023/09/19 04:26:59;;;;;;;8.77;5.15;;;;;;;;;;4962440;28;20023;-93
2023/09/19 04:29:29;;;;;;;12.93;5.25;;;;;;;;;;4962555;28;20023;-92
2023/09/19 04:31:57;;;;;;;5.60;5.00;;;;;;;;;;4962608;28;20035;-93
2023/09/19 04:34:24;;;;;;;7.75;5.25;;;;;;;;;;4962859;28;20050;-93
2023/09/19 04:36:50;;;;;;;8.35;5.75;;;;;;;;;;4978692;28;20047;-93
2023/09/19 04:39:17;;;;;;;8.85;6.32;;;;;;;;;;4979095;28;20041;-95
2023/09/19 04:41:44;;;;;;;10.50;5.65;;;;;;;;;;4979394;28;20042;-93
2023/09/19 04:44:10;;;;;;;9.30;5.28;;;;;;;;;;4962263;28;20035;-93
2023/09/19 04:46:37;;;;;;;9.05;5.13;;;;;;;;;;4962126;28;20321;-93
2023/09/19 04:49:03;;;;;;;8.90;5.45;;;;;;;;;;4962302;28;20026;-92
2023/09/19 04:51:34;;;;;;;9.52;5.80;;;;;;;;;;4962032;28;20046;-93
2023/09/19 04:54:00;;;;;;;9.27;5.22;;;;;;;;;;4961946;28;20110;-93
2023/09/19 04:56:28;;;;;;;9.32;5.40;;;;;;;;;;4962037;28;20027;-94
2023/09/19 04:58:54;;;;;;;9.85;5.60;;;;;;;;;;4962180;28;20023;-93
2023/09/19 05:01:22;;;;;;;9.68;6.00;;;;;;;;;;4961613;28;20031;-94
2023/09/19 05:03:52;;;;;;;9.15;5.22;;;;;;;;;;4962134;28;20031;-94
2023/09/19 05:06:22;;;;;;;12.40;5.38;;;;;;;;;;4978813;28;20098;-90
2023/09/19 05:08:52;;;;;;;9.55;5.70;;;;;;;;;;4955561;28;20429;-94
2023/09/19 05:11:19;;;;;;;6.70;5.47;;;;;;;;;;4962961;28;20027;-95
2023/09/19 05:13:46;;;;;;;7.03;5.80;;;;;;;;;;4962522;28;20027;-94
2023/09/19 05:16:12;;;;;;;8.75;5.85;;;;;;;;;;4962352;28;20043;-94
2023/09/19 05:18:38;;;;;;;7.43;5.50;;;;;;;;;;4962151;28;20049;-95
2023/09/19 05:21:04;;;;;;;8.38;5.25;;;;;;;;;;4979108;28;20034;-95
2023/09/19 05:23:31;;;;;;;7.97;5.65;;;;;;;;;;4978925;28;20042;-94
2023/09/19 05:25:59;;;;;;;10.18;6.47;;;;;;;;;;4961809;28;20023;-95
2023/09/19 05:28:26;;;;;;;11.65;7.07;;;;;;;;;;4979024;28;20023;-95
2023/09/19 05:30:53;;;;;;;9.75;6.32;;;;;;;;;;4978894;28;20089;-93
2023/09/19 05:33:19;;;;;;;14.70;5.85;;;;;;;;;;4968158;28;20107;-95
2023/09/19 05:35:46;;;;;;;12.40;6.10;;;;;;;;;;4948868;28;20049;-92
2023/09/19 05:38:13;;;;;;;10.00;5.40;;;;;;;;;;4961767;28;20033;-93
2023/09/19 05:40:42;;;;;;;10.63;5.55;;;;;;;;;;4978407;28;20117;-93
2023/09/19 05:43:09;;;;;;;8.90;5.75;;;;;;;;;;4978728;28;20026;-93
2023/09/19 05:45:36;;;;;;;13.65;5.47;;;;;;;;;;4978113;28;20031;-93
2023/09/19 05:48:09;;;;;;;11.43;5.88;;;;;;;;;;4961577;28;20036;-93
2023/09/19 05:50:36;;;;;;;11.95;6.10;;;;;;;;;;4961534;28;20027;-92
2023/09/19 05:53:02;;;;;;;21.08;10.25;;;;;;;;;;4978796;28;20384;-93
2023/09/19 05:55:29;;;;;;;23.45;8.90;;;;;;;;;;4961461;28;20034;-94
2023/09/19 05:57:55;;;;;;;16.38;6.60;;;;;;;;;;4978710;28;20072;-93
2023/09/19 06:00:22;;;;;;;9.55;5.63;;;;;;;;;;4952697;29;20774;-93
2023/09/19 06:02:55;;;;;;;8.65;5.90;;;;;;;;;;4971468;28;20035;-94
2023/09/19 06:05:27;;;;;;;9.10;5.85;;;;;;;;;;4978974;28;20338;-96
2023/09/19 06:07:53;;;;;;;8.95;5.68;;;;;;;;;;4954369;29;20027;-91
2023/09/19 06:10:23;;;;;;;9.23;5.35;;;;;;;;;;4941946;29;20016;-92
2023/09/19 06:12:49;;;;;;;10.23;4.95;;;;;;;;;;4950213;29;20040;-93
2023/09/19 06:15:18;;;;;;;10.82;5.63;;;;;;;;;;4957909;28;20107;-92
2023/09/19 06:17:48;;;;;;;11.20;5.40;;;;;;;;;;4942131;29;20118;-94
2023/09/19 06:20:15;;;;;;;10.70;5.80;;;;;;;;;;4959130;29;20039;-94
2023/09/19 06:22:45;;;;;;;9.70;5.47;;;;;;;;;;4960517;28;20033;-91
2023/09/19 06:25:12;;;;;;;10.57;5.83;;;;;;;;;;4977145;28;20106;-93
2023/09/19 06:27:42;;;;;;;10.93;5.97;;;;;;;;;;4961221;28;20394;-93
2023/09/19 06:30:09;;;;;;;11.93;7.18;;;;;;;;;;4960810;28;20075;-93
2023/09/19 06:32:35;;;;;;;10.70;5.85;;;;;;;;;;4980812;28;20046;-93
2023/09/19 06:35:02;;;;;;;13.30;6.13;;;;;;;;;;4965090;28;20030;-91
2023/09/19 06:37:29;;;;;;;15.40;6.18;;;;;;;;;;4981946;28;20117;-92
2023/09/19 06:39:56;;;;;;;15.77;6.25;;;;;;;;;;4980265;28;20027;-91
2023/09/19 06:42:23;;;;;;;13.38;5.80;;;;;;;;;;4980575;28;20097;-92
2023/09/19 06:44:49;;;;;;;17.38;6.28;;;;;;;;;;4964457;28;20038;-92
2023/09/19 06:47:16;;;;;;;19.73;6.20;;;;;;;;;;4981417;28;20159;-91
2023/09/19 06:49:45;;;;;;;11.88;5.53;;;;;;;;;;4964548;28;20425;-91
2023/09/19 06:52:11;;;;;;;12.43;5.88;;;;;;;;;;4964308;28;20045;-91
2023/09/19 06:54:37;;;;;;;11.30;5.70;;;;;;;;;;4981271;28;20035;-90
2023/09/19 06:57:03;;;;;;;11.68;5.68;;;;;;;;;;4981439;28;20073;-89
2023/09/19 06:59:32;;;;;;;11.18;5.70;;;;;;;;;;4964165;28;20117;-91
2023/09/19 07:01:59;;;;;;;9.95;6.15;;;;;;;;;;4980126;28;20177;-90
2023/09/19 07:04:25;;;;;;;8.45;5.70;;;;;;;;;;4964082;28;20125;-91
2023/09/19 07:06:51;;;;;;;12.10;6.00;;;;;;;;;;4980704;28;20023;-91
2023/09/19 07:09:54;;;;;;;8.10;5.15;;;;;;;;;;4964033;28;20310;-89
2023/09/19 07:12:20;;;;;;;7.93;5.10;;;;;;;;;;4963555;28;20023;-92
2023/09/19 07:14:46;;;;;;;11.27;5.57;;;;;;;;;;4966581;28;20147;-91
2023/09/19 07:17:12;;;;;;;11.02;5.30;;;;;;;;;;4956696;28;20058;-91
2023/09/19 07:19:38;;;;;;;13.48;5.63;;;;;;;;;;4980590;28;20420;-90
2023/09/19 07:32:56;;;;;;;10.52;6.07;;;;;;;;;;5075043;27;20383;-91
2023/09/19 07:35:22;;;;;;;13.07;5.97;;;;;;;;;;5073984;28;20021;-91
2023/09/19 07:41:05;;;;;;;11.43;6.20;;;;;;;;;;5069339;28;20052;-89
2023/09/19 07:43:31;;;;;;;14.40;5.90;;;;;;;;;;5074825;28;20017;-90
2023/09/19 07:46:07;;;;;;;9.30;5.60;;;;;;;;;;5073670;28;20025;-90
2023/09/19 07:48:36;;;;;;;12.68;6.15;;;;;;;;;;5074587;28;20042;-90
2023/09/19 07:51:06;;;;;;;10.05;5.85;;;;;;;;;;5074676;28;20430;-91
2023/09/19 07:53:34;;;;;;;9.90;5.43;;;;;;;;;;5073248;28;20028;-90
2023/09/19 07:56:04;;;;;;;16.33;5.43;;;;;;;;;;5074857;28;20033;-90
2023/09/19 07:58:31;;;;;;;17.20;5.78;;;;;;;;;;5073807;28;20044;-90
2023/09/19 08:00:57;;;;;;;15.05;5.80;;;;;;;;;;5073648;28;20082;-89
2023/09/19 08:03:45;;;;;;;10.70;5.38;;;;;;;;;;5073969;28;20457;-93
2023/09/19 08:06:39;;;;;;;13.70;5.85;;;;;;;;;;5073579;28;20024;-96
2023/09/19 08:09:09;;;;;;;12.02;6.75;;;;;;;;;;5075016;28;20056;-95
2023/09/19 08:11:35;;;;;;;17.08;6.53;;;;;;;;;;5074703;28;20060;-82
2023/09/19 08:14:01;;;;;;;14.65;6.20;;;;;;;;;;5073361;28;20460;-82
2023/09/19 08:16:27;;;;;;;10.30;5.80;;;;;;;;;;5072811;28;20064;-83
2023/09/19 08:18:55;;;;;;;12.07;6.07;;;;;;;;;;5072765;28;20032;-82
2023/09/19 08:21:39;;;;;;;9.95;5.35;;;;;;;;;;5072413;28;20056;-83
2023/09/19 08:24:05;;;;;;;12.68;5.85;;;;;;;;;;5072222;28;20066;-82
2023/09/19 08:26:32;;;;;;;14.00;6.20;;;;;;;;;;5073365;28;20021;-82
2023/09/19 08:28:58;;;;;;;14.23;5.72;;;;;;;;;;5071092;28;20021;-93
2023/09/19 08:31:31;;;;;;;15.13;6.10;;;;;;;;;;5061358;28;20045;-94
2023/09/19 08:33:57;;;;;;;11.35;5.90;;;;;;;;;;5063042;28;20030;-95
2023/09/19 08:40:14;;;;;;;11.10;5.68;;;;;;;;;;5068316;28;20055;-95
2023/09/19 08:42:54;;;;;;;15.50;6.10;;;;;;;;;;5053711;28;20036;-94
2023/09/19 08:45:24;;;;;;;15.95;6.25;;;;;;;;;;5040119;28;20338;-94
2023/09/19 08:48:14;;;;;;;22.75;6.70;;;;;;;;;;5055519;28;20025;-94
2023/09/19 08:50:44;;;;;;;16.80;6.47;;;;;;;;;;5058441;28;20033;-93
2023/09/19 08:53:38;;;;;;;15.02;6.10;;;;;;;;;;5041745;28;20057;-94
2023/09/19 08:56:09;;;;;;;14.07;6.18;;;;;;;;;;5041757;28;20124;-95
2023/09/19 08:58:47;;;;;;;16.83;6.07;;;;;;;;;;5041929;28;20072;-95
2023/09/19 09:01:18;;;;;;;19.17;6.13;;;;;;;;;;5041512;28;20065;-93
2023/09/19 09:03:57;;;;;;;18.63;6.30;;;;;;;;;;5058301;28;20021;-95
2023/09/19 09:06:27;;;;;;;17.08;6.00;;;;;;;;;;5041730;28;20036;-93
2023/09/19 09:08:53;;;;;;;12.30;5.30;;;;;;;;;;5058381;28;20117;-95
2023/09/19 09:11:33;;;;;;;16.40;6.57;;;;;;;;;;5041952;28;20025;-94
2023/09/19 09:14:01;;;;;;;16.63;5.93;;;;;;;;;;5058415;28;20041;-95
2023/09/19 09:16:30;;;;;;;18.55;5.82;;;;;;;;;;5041439;28;20060;-93
2023/09/19 09:19:06;;;;;;;18.85;5.53;;;;;;;;;;5041415;28;20042;-94
2023/09/19 09:21:36;;;;;;;18.75;5.80;;;;;;;;;;5058173;28;20039;-94
2023/09/19 09:24:21;;;;;;;27.42;6.13;;;;;;;;;;5041374;28;20051;-93
2023/09/19 09:26:49;;;;;;;19.50;5.93;;;;;;;;;;5041438;28;20398;-94
2023/09/19 09:29:15;;;;;;;21.90;6.10;;;;;;;;;;5058841;28;20112;-95
2023/09/19 09:31:44;;;;;;;31.13;6.15;;;;;;;;;;5058884;28;20330;-94
2023/09/19 09:34:13;;;;;;;25.80;5.50;;;;;;;;;;5058479;28;20029;-93
2023/09/19 09:36:41;;;;;;;23.38;5.65;;;;;;;;;;5059212;28;20033;-93
2023/09/19 09:39:18;;;;;;;31.92;6.38;;;;;;;;;;5058182;28;20033;-93
2023/09/19 09:41:52;;;;;;;31.95;6.35;;;;;;;;;;5059123;28;20032;-94
2023/09/19 09:44:31;;;;;;;35.45;6.18;;;;;;;;;;5059555;28;20056;-95
2023/09/19 09:47:40;;;;;;;25.30;5.72;;;;;;;;;;5059225;28;20040;-93
2023/09/19 09:50:06;;;;;;;29.83;6.68;;;;;;;;;;5058793;28;21008;-95
2023/09/19 09:53:07;;;;;;;36.67;6.60;;;;;;;;;;5058169;28;20028;-94
2023/09/19 09:55:56;;;;;;;30.98;6.38;;;;;;;;;;5058190;28;20021;-94
2023/09/19 09:58:41;;;;;;;47.03;8.23;;;;;;;;;;5057531;28;20029;-93
2023/09/19 10:01:20;;;;;;;;;;;;;;;;;;;;;
2023/09/19 10:03:56;;;;;;;26.52;7.28;;;;;;;;;;5052630;28;20041;-93
2023/09/19 10:06:28;;;;;;;33.15;7.80;;;;;;;;;;5057225;28;20362;-95
2023/09/19 10:09:22;;;;;;;37.92;7.60;;;;;;;;;;5040559;28;20112;-95
2023/09/19 10:12:13;;;;;;;29.55;7.35;;;;;;;;;;5057110;28;20167;-94
2023/09/19 10:15:08;;;;;;;33.60;7.70;;;;;;;;;;5057016;28;20033;-94
2023/09/19 10:17:37;;;;;;;37.35;8.30;;;;;;;;;;5056271;28;20036;-94
2023/09/19 10:20:17;;;;;;;40.63;8.88;;;;;;;;;;5056920;28;20029;-94
2023/09/19 10:22:56;;;;;;;39.95;8.75;;;;;;;;;;5057005;28;20455;-93
2023/09/19 10:25:23;;;;;;;29.17;9.48;;;;;;;;;;5056698;28;20023;-94
2023/09/19 10:27:51;;;;;;;40.38;8.75;;;;;;;;;;5040425;28;20067;-94
2023/09/19 10:30:18;;;;;;;32.67;9.40;;;;;;;;;;5056660;28;20091;-93
2023/09/19 10:32:46;;;;;;;27.67;7.18;;;;;;;;;;5056557;28;20053;-92
2023/09/19 10:35:14;;;;;;;28.75;8.27;;;;;;;;;;5045131;28;20039;-94
2023/09/19 10:37:40;;;;;;;26.85;7.53;;;;;;;;;;5057647;28;20414;-94
2023/09/19 10:40:15;;;;;;;26.85;7.03;;;;;;;;;;5058143;28;20124;-95
2023/09/19 10:42:43;;;;;;;27.00;6.85;;;;;;;;;;5057306;28;20029;-94
2023/09/19 10:45:13;;;;;;;21.15;5.97;;;;;;;;;;5057567;28;20021;-93
2023/09/19 10:47:39;;;;;;;29.10;5.37;;;;;;;;;;5057305;28;20021;-92
2023/09/19 10:50:12;;;;;;;18.52;4.82;;;;;;;;;;5058049;28;20032;-95
2023/09/19 10:52:41;;;;;;;22.15;5.10;;;;;;;;;;5058141;28;20028;-93
2023/09/19 10:55:09;;;;;;;23.85;4.80;;;;;;;;;;5057212;28;20052;-92
2023/09/19 10:57:35;;;;;;;18.63;3.97;;;;;;;;;;5057035;28;20028;-93
2023/09/19 11:00:26;;;;;;;16.58;4.03;;;;;;;;;;5056986;28;20029;-93
2023/09/19 11:03:32;;;;;;;25.70;3.95;;;;;;;;;;5056917;28;20414;-92
2023/09/19 11:06:31;;;;;;;19.15;3.25;;;;;;;;;;5055963;28;20064;-93
2023/09/19 11:11:39;;;;;;;12.35;3.10;;;;;;;;;;4977292;28;20113;-93
2023/09/19 11:14:14;;;;;;;18.75;3.47;;;;;;;;;;4961151;28;20038;-93
2023/09/19 11:16:40;;;;;;;16.10;3.42;;;;;;;;;;4961786;28;20073;-93
2023/09/19 11:19:10;;;;;;;12.88;3.40;;;;;;;;;;4961125;28;20038;-93
2023/09/19 11:21:37;;;;;;;19.73;3.85;;;;;;;;;;4977300;28;20039;-93
2023/09/19 11:24:10;;;;;;;20.17;3.63;;;;;;;;;;4961134;28;20026;-93
2023/09/19 11:26:47;;;;;;;14.38;3.60;;;;;;;;;;4961359;28;20038;-94
2023/09/19 11:29:30;;;;;;;17.50;3.25;;;;;;;;;;4961105;28;20412;-92
2023/09/19 11:31:58;;;;;;;15.07;3.28;;;;;;;;;;4960703;28;20051;-91
2023/09/19 11:34:45;;;;;;;11.32;3.00;;;;;;;;;;4977146;28;20098;-92
2023/09/19 11:37:11;;;;;;;13.98;3.28;;;;;;;;;;4977023;28;20333;-94
2023/09/19 11:39:38;;;;;;;11.82;3.22;;;;;;;;;;4985169;28;20041;-93
2023/09/19 11:42:23;;;;;;;17.38;3.17;;;;;;;;;;4996498;28;20034;-93
2023/09/19 11:44:51;;;;;;;11.50;2.63;;;;;;;;;;5034895;28;20029;-93
2023/09/19 11:47:19;;;;;;;12.23;3.33;;;;;;;;;;5056438;28;20078;-94
2023/09/19 11:49:45;;;;;;;11.43;2.35;;;;;;;;;;5057473;28;20017;-92
2023/09/19 11:52:13;;;;;;;9.80;2.17;;;;;;;;;;5056627;28;20338;-93
2023/09/19 11:54:41;;;;;;;6.38;1.83;;;;;;;;;;5056319;28;20025;-94
2023/09/19 11:57:08;;;;;;;10.48;2.53;;;;;;;;;;5057085;28;20406;-95
2023/09/19 11:59:39;;;;;;;9.93;2.33;;;;;;;;;;5057180;28;20055;-93
2023/09/19 12:02:06;;;;;;;7.80;2.27;;;;;;;;;;5057047;28;20044;-94
2023/09/19 12:04:41;;;;;;;8.38;2.30;;;;;;;;;;5056447;28;20055;-93
2023/09/19 12:07:18;;;;;;;6.18;1.88;;;;;;;;;;5056186;28;20116;-93
2023/09/19 12:10:03;;;;;;;10.82;2.00;;;;;;;;;;5056443;28;20021;-94
2023/09/19 12:12:30;;;;;;;11.27;1.88;;;;;;;;;;5056347;28;20485;-93
2023/09/19 12:14:59;;;;;;;13.35;2.25;;;;;;;;;;5056106;28;20044;-93
2023/09/19 12:17:39;;;;;;;7.15;1.40;;;;;;;;;;5056112;28;20029;-92
2023/09/19 12:20:14;;;;;;;7.53;1.65;;;;;;;;;;5060103;28;20066;-92
2023/09/19 12:22:43;;;;;;;7.57;1.67;;;;;;;;;;5060571;28;20108;-93
2023/09/19 12:25:11;;;;;;;13.80;1.90;;;;;;;;;;5060638;28;20017;-93
2023/09/19 12:27:47;;;;;;;4.45;1.48;;;;;;;;;;5061039;28;20029;-92
2023/09/19 12:30:14;;;;;;;8.00;1.40;;;;;;;;;;5059471;28;20350;-93
2023/09/19 12:32:41;;;;;;;6.00;1.85;;;;;;;;;;5058461;28;20053;-91
2023/09/19 12:35:10;;;;;;;5.22;1.60;;;;;;;;;;5041538;28;20038;-92
2023/09/19 12:37:37;;;;;;;6.80;1.55;;;;;;;;;;5045501;28;20116;-93
2023/09/19 12:40:15;;;;;;;4.63;1.40;;;;;;;;;;5040773;28;20049;-93
2023/09/19 12:42:42;;;;;;;7.18;1.48;;;;;;;;;;5040495;28;20049;-94
2023/09/19 12:45:09;;;;;;;4.00;1.40;;;;;;;;;;5039454;28;20025;-94
2023/09/19 12:47:35;;;;;;;5.22;1.40;;;;;;;;;;5040696;28;20056;-92
2023/09/19 12:50:18;;;;;;;5.00;2.08;;;;;;;;;;5041590;28;20059;-93
2023/09/19 12:52:50;;;;;;;3.90;1.33;;;;;;;;;;5046890;28;20040;-94
2023/09/19 12:55:26;;;;;;;6.72;1.23;;;;;;;;;;5039543;28;20439;-93
2023/09/19 12:57:59;;;;;;;4.90;1.40;;;;;;;;;;5041072;28;20067;-94
2023/09/19 13:00:41;;;;;;;7.20;1.63;;;;;;;;;;5045133;28;20428;-94
2023/09/19 13:03:26;;;;;;;2.42;1.00;;;;;;;;;;5058453;28;20032;-94
2023/09/19 13:05:55;;;;;;;4.00;1.17;;;;;;;;;;5060648;28;20025;-92
2023/09/19 13:11:38;;;;;;;5.68;1.40;;;;;;;;;;5061417;28;20024;-90
2023/09/19 13:14:24;;;;;;;3.63;1.30;;;;;;;;;;5061241;28;20021;-93
2023/09/19 13:17:04;;;;;;;5.63;1.20;;;;;;;;;;5053209;28;20048;-90
2023/09/19 13:19:41;;;;;;;5.38;1.70;;;;;;;;;;5059378;28;20034;-92
2023/09/19 13:22:26;;;;;;;4.25;1.38;;;;;;;;;;5049917;28;20025;-91
2023/09/19 13:24:52;;;;;;;3.85;1.35;;;;;;;;;;5061004;28;20040;-93
2023/09/19 13:27:18;;;;;;;5.78;1.30;;;;;;;;;;5042438;28;20021;-93
2023/09/19 13:29:44;;;;;;;3.97;1.30;;;;;;;;;;5051721;28;20033;-93
2023/09/19 13:32:11;;;;;;;5.75;1.33;;;;;;;;;;5042739;28;20042;-92
2023/09/19 13:34:37;;;;;;;4.57;1.27;;;;;;;;;;5059269;28;20049;-92
2023/09/19 13:37:04;;;;;;;6.55;1.65;;;;;;;;;;5045954;28;20024;-91
2023/09/19 13:39:30;;;;;;;2.47;1.02;;;;;;;;;;5040352;28;20040;-93
2023/09/19 13:41:57;;;;;;;3.10;1.20;;;;;;;;;;5041050;28;20464;-92
2023/09/19 13:44:43;;;;;;;;;;;;;;;;;;;;;
2023/09/19 13:47:10;;;;;;;7.13;1.30;;;;;;;;;;5041267;28;20106;-92
2023/09/19 13:49:38;;;;;;;10.35;1.80;;;;;;;;;;5049522;22;20048;-85
2023/09/19 13:52:05;;;;;;;7.88;1.20;;;;;;;;;;5043113;28;20057;-85
2023/09/19 13:54:31;;;;;;;4.35;1.00;;;;;;;;;;5057594;28;20457;-85
2023/09/19 13:56:57;;;;;;;7.55;0.90;;;;;;;;;;5059401;28;20052;-84
2023/09/19 13:59:24;;;;;;;5.18;1.10;;;;;;;;;;5052103;28;20021;-85
2023/09/19 14:01:53;;;;;;;7.07;1.20;;;;;;;;;;5060499;28;20086;-85
2023/09/19 14:04:21;;;;;;;7.30;1.20;;;;;;;;;;5044244;28;20024;-85
2023/09/19 14:09:51;;;;;;;6.25;1.10;;;;;;;;;;5043013;28;20035;-92
2023/09/19 14:12:17;;;;;;;7.18;0.90;;;;;;;;;;5060963;28;20032;-93
2023/09/19 14:14:45;;;;;;;2.83;0.90;;;;;;;;;;5057397;28;20028;-88
2023/09/19 14:17:11;;;;;;;4.88;1.10;;;;;;;;;;5058710;28;20070;-86
2023/09/19 14:19:37;;;;;;;3.90;1.20;;;;;;;;;;5051987;28;20033;-88
2023/09/19 14:22:07;;;;;;;4.68;1.10;;;;;;;;;;5040433;28;20410;-88
2023/09/19 14:24:34;;;;;;;4.65;0.95;;;;;;;;;;5057292;28;20025;-88
2023/09/19 14:27:00;;;;;;;2.83;1.00;;;;;;;;;;5058697;28;20025;-88
2023/09/19 14:29:26;;;;;;;9.70;1.15;;;;;;;;;;5058285;28;20029;-87
2023/09/19 14:31:52;;;;;;;4.93;1.05;;;;;;;;;;5058407;28;20057;-88
2023/09/19 14:34:19;;;;;;;2.50;1.00;;;;;;;;;;5057435;28;20365;-87
2023/09/19 14:37:04;;;;;;;6.80;1.00;;;;;;;;;;5057689;28;20393;-87
2023/09/19 14:39:30;;;;;;;5.55;1.70;;;;;;;;;;5048225;28;20025;-86
2023/09/19 14:57:13;;;;;;;5.40;1.33;;;;;;;;;;4926293;29;20046;-96
2023/09/19 15:05:03;;;;;;;4.35;1.30;;;;;;;;;;5714164;23;20071;-96
2023/09/19 15:07:29;;;;;;;9.82;2.08;;;;;;;;;;4924691;29;20457;-94
2023/09/19 15:09:55;;;;;;;5.68;1.40;;;;;;;;;;4921732;29;20325;-95
2023/09/19 15:12:21;;;;;;;5.25;1.50;;;;;;;;;;4921128;29;20024;-96
2023/09/19 15:14:47;;;;;;;12.18;1.40;;;;;;;;;;4920635;29;20031;-95
2023/09/19 15:17:14;;;;;;;8.13;1.70;;;;;;;;;;4920809;29;20326;-96
2023/09/19 15:19:40;;;;;;;8.27;1.25;;;;;;;;;;4920605;29;20047;-94
2023/09/19 15:22:07;;;;;;;4.22;1.25;;;;;;;;;;4921379;29;20039;-95
2023/09/19 15:24:33;;;;;;;2.55;1.15;;;;;;;;;;4920510;29;20064;-94
2023/09/19 15:26:59;;;;;;;7.32;1.00;;;;;;;;;;4921532;29;20036;-95
2023/09/19 15:29:25;;;;;;;7.20;1.58;;;;;;;;;;4921276;29;20084;-95
2023/09/19 15:31:51;;;;;;;4.72;1.27;;;;;;;;;;4920401;29;20418;-95
2023/09/19 15:34:18;;;;;;;6.18;1.08;;;;;;;;;;4921501;29;20036;-95
2023/09/19 15:36:44;;;;;;;3.97;1.23;;;;;;;;;;4920453;29;20122;-96
2023/09/19 15:39:15;;;;;;;7.28;1.20;;;;;;;;;;4921419;29;20055;-96
2023/09/19 15:41:42;;;;;;;3.75;1.20;;;;;;;;;;4920885;29;20028;-91
2023/09/19 15:44:15;;;;;;;2.22;1.05;;;;;;;;;;4920293;29;20032;-95
2023/09/19 15:46:41;;;;;;;4.72;0.95;;;;;;;;;;4920568;29;20024;-94
2023/09/19 15:49:08;;;;;;;4.55;1.05;;;;;;;;;;4921118;29;20024;-96
2023/09/19 15:51:35;;;;;;;6.60;1.25;;;;;;;;;;4920915;29;20024;-94
2023/09/19 15:54:02;;;;;;;4.97;1.02;;;;;;;;;;4922999;29;20051;-94
2023/09/19 15:56:29;;;;;;;3.80;1.00;;;;;;;;;;4923768;29;20067;-95
2023/09/19 15:58:55;;;;;;;4.28;0.90;;;;;;;;;;4922179;29;20036;-94
2023/09/19 16:01:22;;;;;;;6.50;0.98;;;;;;;;;;4923453;29;20044;-94
2023/09/19 16:03:53;;;;;;;5.55;1.00;;;;;;;;;;4923780;29;20034;-93
2023/09/19 16:06:23;;;;;;;5.38;0.90;;;;;;;;;;4925083;29;20144;-93
2023/09/19 16:08:52;;;;;;;11.80;1.73;;;;;;;;;;4924710;29;20032;-96
2023/09/19 16:11:20;;;;;;;2.88;1.00;;;;;;;;;;4923822;29;20038;-94
2023/09/19 16:13:47;;;;;;;6.25;1.40;;;;;;;;;;4923578;29;20024;-94
2023/09/19 16:16:15;;;;;;;2.97;1.13;;;;;;;;;;4924523;29;20024;-94
2023/09/19 16:18:59;;;;;;;5.03;1.05;;;;;;;;;;4924422;29;20470;-94
2023/09/19 16:21:28;;;;;;;5.47;1.10;;;;;;;;;;4923437;29;20043;-92
2023/09/19 16:23:55;;;;;;;21.77;3.40;;;;;;;;;;4925523;29;20031;-93
2023/09/19 16:26:23;;;;;;;6.70;1.15;;;;;;;;;;4923767;29;20060;-93
2023/09/19 16:28:53;;;;;;;4.00;1.05;;;;;;;;;;4924586;29;20373;-93